Pagrindinis puslapis
METAR-TAF:

METAR-TAF

Oro uostai :

Santjagas, Čilė

platuma: 33-23S, ilguma: 070-47W, Aukštis: 475 m

Dabartinis oras

Ataskaita buvo paskelbta 1 valandą ir 2 minutes, ne 04:00 UTC
Ramus vėjas
Temperatūra 16°C
Drėgmė 45%
Slėgis 1014 hPa
Matomumas 10 km arba daugiau

METAR: SCEL 070400Z AUTO 00000KT 9999 NCD 16/04 Q1014 NOSIG

Laikas: 01:02 (05:02 UTC)

Prognozė

Ataskaita buvo paskelbta 7 valandos ir 2 minutes, ne 22:00 UTC
Prognozė galioja nuo 07 metu 00 UTC su 07 metu 24 UTC
Vėjas 10 kt iš Pietų/Pietvakarių
Matomumas 10 km arba daugiau
nėra debesų žemiau 1500 m ir nėra kamuolinių lietaus debesų
Tapsmas
nuo 07 metu 03 UTC su 07 metu 05 UTC
Vėjas 4 kt iš Pietų/Pietryčių
Tapsmas
nuo 07 metu 16 UTC su 07 metu 18 UTC
Vėjas 10 kt iš Pietų

TAF: SCEL 062200Z 0700/0724 20010KT CAVOK TX31/0719Z TN09/0711Z BECMG 0703/0705 16004KT BECMG 0716/0718 19010KT

Orai ataskaitas ir orų prognozės (METAR, TAF).

turimą stotys yra geltonos ir raudonos taškus žemėlapyje.

Perkelti pele per norėdami pamatyti stoties vardą.

Tada spustelėkite, norėdami matyti oro stebėjimo ir prognozės.

Norėdami pakeisti žemėlapį: spustelėkite ant žalios mygtukų su juodo kryžiaus žemyn,; žalią mygtuką su brūkšneliu, jei norite nutolinti; arba žalių rodyklių gretimoms žemėlapius.


METAR-TAF: